KSSF - San Antonio/Stinson, TX, US

Issued at 0522 UTC 26 May 2019
Updated at 0856 UTC 26 May 2019
Potential Impact None Slight Moderate High
Time0853Z 26/09Z 26/10Z 26/11Z 26/12Z 26/13Z 26/14Z 26/15Z 26/16Z 26/17Z 26/18Z 26/19Z 26/20Z 26/21Z>>
Type OBS PRVL PRVL PRVL PRVL PRVL PRVL PRVL PRVL PRVL PRVL PRVL PRVL PRVL
VIS 10 >6 >6 >6 >6 >6 >6 >6 >6 >6 >6 >6 >6 >6
CIG 39 7 7 7 7 7 7 15 35 35 35 35 35 250
Cover OVC OVC OVC OVC OVC OVC OVC BKN BKN BKN BKN BKN BKN BKN
FltCat VFR IFR IFR IFR IFR IFR IFR MVFR VFR VFR VFR VFR VFR VFR
WX -- -- -- -- -- -- -- -- -- -- -- -- -- --
WDir 140 140 140 140 140 140 140 150 150 150 150 150 150 130
WSpd 7 10 10 10 10 10 10 12 15 15 15 15 15 15
WGst -- -- -- -- -- -- -- -- -- -- -- -- -- --
Raw TAF
KSSF 260522Z 2606/2706 14010KT P6SM BKN015
  FM260900 14010KT P6SM OVC007
  FM261500 15012KT P6SM BKN015
  FM261600 15015KT P6SM BKN035
  FM262100 13015KT P6SM SCT050 BKN250


Raw METAR
KSSF 260853Z AUTO 14007KT 10SM FEW018 SCT027 OVC039 24/21 A2998 RMK AO2 SLP139 T02440206 57002
KSSF 260842Z AUTO 13006KT 10SM SCT018 BKN031 OVC041 24/21 A2998 RMK AO2 T02440206
KSSF 260810Z AUTO 13007KT 10SM SCT012 BKN019 OVC036 24/21 A2998 RMK AO2 T02440211
KSSF 260753Z AUTO 12007KT 10SM BKN012 BKN018 OVC025 24/21 A2998 RMK AO2 SLP140 T02440211
KSSF 260653Z AUTO 14008KT 10SM OVC012 25/21 A2998 RMK AO2 SLP141 T02500211
KSSF 260553Z AUTO 15010KT 10SM OVC011 24/21 A2999 RMK AO2 SLP142 T02440211 10306 20244 403390244 50005

METAR Board
Radar Display
Forecast Discussion
For situational awareness. Not to be used for flight planning purposes.